createdAt,value
2023-02-23T00:01:40.553Z,45.93
2023-02-23T00:04:09.432Z,42.73
2023-02-23T00:06:38.826Z,45.77
2023-02-23T00:09:12.138Z,46.83
2023-02-23T00:11:41.840Z,43.50
2023-02-23T00:14:09.827Z,45.30
2023-02-23T00:16:37.812Z,44.60
2023-02-23T00:19:08.105Z,55.77
2023-02-23T00:21:36.423Z,48.37
2023-02-23T00:24:06.798Z,47.03
2023-02-23T00:26:36.411Z,40.57
2023-02-23T00:29:08.457Z,56.23
2023-02-23T00:31:38.501Z,43.37
2023-02-23T00:34:07.588Z,47.13
2023-02-23T00:36:36.914Z,38.10
2023-02-23T00:39:17.974Z,44.67
2023-02-23T00:41:46.370Z,45.00
2023-02-23T00:44:16.357Z,43.07
2023-02-23T00:46:45.664Z,43.57
2023-02-23T00:49:14.714Z,50.80
2023-02-23T00:51:42.757Z,40.80
2023-02-23T00:54:13.973Z,43.20
2023-02-23T00:56:42.331Z,44.30
2023-02-23T00:59:10.340Z,45.83
2023-02-23T01:01:41.760Z,43.40
2023-02-23T01:04:10.793Z,46.13
2023-02-23T01:06:40.700Z,44.53
2023-02-23T01:09:10.396Z,48.70
2023-02-23T01:11:38.509Z,45.93
2023-02-23T01:14:06.413Z,57.30
2023-02-23T01:16:35.857Z,46.27
2023-02-23T01:19:06.057Z,48.67
2023-02-23T01:21:36.552Z,42.07
2023-02-23T01:24:05.560Z,42.13
2023-02-23T01:26:36.187Z,40.23
2023-02-23T01:29:08.601Z,41.27
2023-02-23T01:31:37.229Z,40.80
2023-02-23T01:34:07.665Z,43.37
2023-02-23T01:36:38.868Z,43.17
2023-02-23T01:39:09.237Z,56.13
2023-02-23T01:41:38.107Z,39.63
2023-02-23T01:44:09.008Z,45.67
2023-02-23T01:46:39.009Z,44.20
2023-02-23T01:49:11.497Z,39.80
2023-02-23T01:51:43.776Z,45.03
2023-02-23T01:54:16.355Z,43.37
2023-02-23T01:56:49.215Z,43.73
2023-02-23T01:59:18.735Z,42.50
2023-02-23T02:01:48.181Z,52.23
2023-02-23T02:04:19.528Z,39.40
2023-02-23T02:06:53.489Z,42.57
2023-02-23T02:09:25.606Z,45.57
2023-02-23T02:11:55.016Z,29.30
2023-02-23T02:14:27.198Z,25.20
2023-02-23T02:17:12.663Z,26.80
2023-02-23T02:20:32.088Z,32.83
2023-02-23T02:23:49.197Z,43.50
2023-02-23T02:26:27.908Z,40.23
2023-02-23T02:29:37.863Z,31.03
2023-02-23T02:32:32.553Z,30.70
2023-02-23T02:35:37.994Z,31.10
2023-02-23T02:38:34.285Z,34.17
2023-02-23T02:41:07.544Z,33.13
2023-02-23T02:43:44.897Z,29.43
2023-02-23T02:46:17.455Z,29.87
2023-02-23T02:48:52.159Z,33.00
2023-02-23T02:51:25.383Z,30.00
2023-02-23T02:54:06.545Z,34.93
2023-02-23T02:56:40.290Z,36.30
2023-02-23T02:59:30.210Z,43.90
2023-02-23T03:02:16.349Z,45.60
2023-02-23T03:05:02.007Z,42.00
2023-02-23T03:07:54.685Z,35.70
2023-02-23T03:10:49.026Z,39.47
2023-02-23T03:13:41.509Z,338.70
2023-02-23T03:16:38.077Z,191.40
2023-02-23T03:19:33.226Z,56.63
2023-02-23T03:22:30.117Z,42.90
2023-02-23T03:25:19.774Z,49.77
2023-02-23T03:28:11.082Z,45.90
2023-02-23T03:31:09.660Z,42.90
2023-02-23T03:34:02.684Z,31.93
2023-02-23T03:36:52.292Z,119.37
2023-02-23T03:39:44.040Z,158.80
2023-02-23T03:42:34.168Z,72.67
2023-02-23T03:45:25.607Z,33.30
2023-02-23T03:48:13.816Z,48.13
2023-02-23T03:51:04.451Z,31.23
2023-02-23T03:53:54.423Z,29.53
2023-02-23T03:56:43.494Z,38.67
2023-02-23T03:59:32.490Z,34.03
2023-02-23T04:02:21.270Z,32.90
2023-02-23T04:05:07.691Z,35.90
2023-02-23T04:07:55.198Z,40.80
2023-02-23T04:10:42.069Z,29.97
2023-02-23T04:13:14.503Z,40.80
2023-02-23T04:15:47.424Z,44.77
2023-02-23T04:18:19.496Z,38.43
2023-02-23T04:20:47.682Z,45.93
2023-02-23T04:23:16.132Z,45.70
2023-02-23T04:25:44.077Z,46.33
2023-02-23T04:28:12.321Z,45.40
2023-02-23T04:30:40.903Z,42.77
2023-02-23T04:33:09.222Z,46.47
2023-02-23T04:35:38.809Z,48.20
2023-02-23T04:38:06.790Z,52.93
2023-02-23T04:40:34.857Z,41.73
2023-02-23T04:43:02.821Z,30.43
2023-02-23T04:45:30.744Z,36.30
2023-02-23T04:47:58.709Z,43.60
2023-02-23T04:50:26.981Z,40.83
2023-02-23T04:52:56.693Z,41.77
2023-02-23T04:55:26.813Z,38.50
2023-02-23T04:57:58.946Z,35.53
2023-02-23T05:00:27.116Z,35.33
2023-02-23T05:03:03.237Z,44.17
2023-02-23T05:05:31.920Z,32.23
2023-02-23T05:08:01.318Z,47.70
2023-02-23T05:10:29.658Z,39.63
2023-02-23T05:12:58.833Z,33.63
2023-02-23T05:15:26.786Z,44.30
2023-02-23T05:17:56.407Z,46.23
2023-02-23T05:20:24.437Z,34.90
2023-02-23T05:22:52.392Z,41.70
2023-02-23T05:25:21.894Z,43.33
2023-02-23T05:27:50.042Z,34.03
2023-02-23T05:30:18.435Z,34.93
2023-02-23T05:32:46.434Z,32.47
2023-02-23T05:35:14.449Z,30.70
2023-02-23T05:37:42.403Z,43.10
2023-02-23T05:40:12.228Z,32.07
2023-02-23T05:42:41.557Z,33.87
2023-02-23T05:45:10.105Z,35.00
2023-02-23T05:47:38.776Z,36.90
2023-02-23T05:50:07.984Z,35.97
2023-02-23T05:52:38.964Z,43.30
2023-02-23T05:55:07.774Z,41.03
2023-02-23T05:57:35.684Z,46.40
2023-02-23T06:00:07.083Z,36.10
2023-02-23T06:02:36.373Z,32.93
2023-02-23T06:05:05.979Z,38.90
2023-02-23T06:07:33.909Z,44.03
2023-02-23T06:10:01.886Z,41.80
2023-02-23T06:12:29.782Z,46.20
2023-02-23T06:14:58.072Z,36.70
2023-02-23T06:17:27.436Z,44.47
2023-02-23T06:19:55.564Z,42.70
2023-02-23T06:22:23.610Z,42.67
2023-02-23T06:24:51.608Z,48.30
2023-02-23T06:27:19.588Z,47.97
2023-02-23T06:29:47.553Z,49.20
2023-02-23T06:32:15.665Z,52.17
2023-02-23T06:34:45.635Z,40.30
2023-02-23T06:37:13.761Z,39.80
2023-02-23T06:39:41.706Z,43.60
2023-02-23T06:42:09.649Z,48.73
2023-02-23T06:44:37.803Z,43.50
2023-02-23T06:47:06.600Z,41.87
2023-02-23T06:49:34.682Z,49.10
2023-02-23T06:52:03.956Z,44.23
2023-02-23T06:54:31.845Z,40.83
2023-02-23T06:56:59.801Z,40.17
2023-02-23T06:59:27.881Z,43.67
2023-02-23T07:01:55.824Z,36.23
2023-02-23T07:04:24.059Z,47.10
2023-02-23T07:06:52.259Z,46.97
2023-02-23T07:09:21.550Z,46.87
2023-02-23T07:11:49.489Z,52.03
2023-02-23T07:14:26.165Z,38.03
2023-02-23T07:16:55.496Z,40.30
2023-02-23T07:19:23.799Z,44.17
2023-02-23T07:21:51.982Z,58.37
2023-02-23T07:24:21.888Z,71.03
2023-02-23T07:26:49.888Z,56.67
2023-02-23T07:29:17.946Z,38.67
2023-02-23T07:31:46.112Z,46.00
2023-02-23T07:34:14.120Z,39.43
2023-02-23T07:36:42.103Z,44.67
2023-02-23T07:39:10.059Z,39.83
2023-02-23T07:41:39.316Z,44.47
2023-02-23T07:44:07.741Z,42.43
2023-02-23T07:46:35.774Z,40.80
2023-02-23T07:49:04.414Z,33.93
2023-02-23T07:51:32.328Z,47.03
2023-02-23T07:54:04.614Z,36.90
2023-02-23T07:56:32.865Z,53.83
2023-02-23T07:59:02.320Z,37.67
2023-02-23T08:01:30.978Z,37.07
2023-02-23T08:03:58.960Z,45.93
2023-02-23T08:06:26.879Z,49.90
2023-02-23T08:08:54.800Z,57.83
2023-02-23T08:11:23.187Z,103.43
2023-02-23T08:13:51.126Z,76.50
2023-02-23T08:16:20.406Z,70.90
2023-02-23T08:18:48.692Z,79.03
2023-02-23T08:21:17.026Z,74.33
2023-02-23T08:23:45.441Z,77.07
2023-02-23T08:26:13.368Z,77.23
2023-02-23T08:28:41.783Z,53.63
2023-02-23T08:31:11.119Z,58.53
2023-02-23T08:33:41.434Z,89.70
2023-02-23T08:36:10.148Z,75.97
2023-02-23T08:38:38.037Z,60.27
2023-02-23T08:41:07.313Z,40.07
2023-02-23T08:43:35.248Z,62.93
2023-02-23T08:46:03.278Z,55.57
2023-02-23T08:48:33.929Z,52.50
2023-02-23T08:51:03.419Z,52.67
2023-02-23T08:53:31.455Z,49.57
2023-02-23T08:56:00.635Z,42.13
2023-02-23T08:58:28.706Z,43.80
2023-02-23T09:00:57.073Z,54.70
2023-02-23T09:03:26.241Z,76.70
2023-02-23T09:05:54.688Z,53.67
2023-02-23T09:08:24.841Z,49.97
2023-02-23T09:10:53.689Z,86.80
2023-02-23T09:13:21.628Z,52.93
2023-02-23T09:15:49.538Z,40.67
2023-02-23T09:18:18.365Z,49.67
2023-02-23T09:20:46.720Z,46.60
2023-02-23T09:23:14.688Z,42.23
2023-02-23T09:25:44.721Z,39.90
2023-02-23T09:28:14.101Z,61.70
2023-02-23T09:30:43.196Z,53.43
2023-02-23T09:33:11.897Z,47.60
2023-02-23T09:35:42.091Z,46.60
2023-02-23T09:38:10.584Z,89.00
2023-02-23T09:40:48.657Z,126.93
2023-02-23T09:43:21.202Z,100.50
2023-02-23T09:45:52.339Z,66.33
2023-02-23T09:48:23.016Z,61.23
2023-02-23T09:50:53.859Z,70.13
2023-02-23T09:53:33.868Z,50.37
2023-02-23T09:56:11.194Z,46.83
2023-02-23T09:58:40.111Z,44.70
2023-02-23T10:01:45.954Z,50.63
2023-02-23T10:04:20.302Z,41.50
2023-02-23T10:06:55.670Z,55.77
2023-02-23T10:09:44.143Z,45.57
2023-02-23T10:12:20.596Z,43.73
2023-02-23T10:15:01.291Z,42.90
2023-02-23T10:17:39.743Z,47.37
2023-02-23T10:20:19.689Z,42.47
2023-02-23T10:22:49.733Z,49.70
2023-02-23T10:25:21.315Z,46.47
2023-02-23T10:27:51.656Z,54.30
2023-02-23T10:30:22.903Z,42.37
2023-02-23T10:32:55.580Z,49.57
2023-02-23T10:35:25.407Z,43.93
2023-02-23T10:37:54.506Z,45.43
2023-02-23T10:40:27.645Z,52.63
2023-02-23T10:42:58.086Z,47.33
2023-02-23T10:45:28.605Z,45.13
2023-02-23T10:48:00.053Z,44.60
2023-02-23T10:50:29.217Z,42.57
2023-02-23T10:53:01.408Z,45.20
2023-02-23T10:55:31.479Z,39.27
2023-02-23T10:58:09.233Z,45.70
2023-02-23T11:00:39.824Z,42.80
2023-02-23T11:03:19.884Z,46.23
2023-02-23T11:05:50.610Z,44.03
2023-02-23T11:08:31.737Z,45.80
2023-02-23T11:11:06.631Z,55.90
2023-02-23T11:13:41.465Z,42.20
2023-02-23T11:16:13.898Z,47.70
2023-02-23T11:18:44.558Z,59.00
2023-02-23T11:21:18.631Z,42.77
2023-02-23T11:23:46.857Z,42.50
2023-02-23T11:26:38.263Z,47.10
2023-02-23T11:29:29.169Z,44.00
2023-02-23T11:31:59.924Z,43.40
2023-02-23T11:34:31.227Z,45.07
2023-02-23T11:37:02.480Z,44.90
2023-02-23T11:39:30.555Z,58.70
2023-02-23T11:42:19.397Z,47.83
2023-02-23T11:45:03.179Z,44.00
2023-02-23T11:47:32.754Z,39.60
2023-02-23T11:50:01.325Z,41.67
2023-02-23T11:52:31.286Z,46.13
2023-02-23T11:55:02.597Z,42.83
2023-02-23T11:57:34.093Z,39.77
2023-02-23T12:00:12.140Z,40.20
2023-02-23T12:02:51.213Z,47.00
2023-02-23T12:05:27.229Z,39.80
2023-02-23T12:08:00.946Z,39.70
2023-02-23T12:10:34.397Z,40.67
2023-02-23T12:13:10.640Z,42.53
2023-02-23T12:15:44.960Z,40.63
2023-02-23T12:18:33.480Z,42.20
2023-02-23T12:21:11.235Z,37.23
2023-02-23T12:23:42.112Z,39.00
2023-02-23T12:26:17.827Z,40.77
2023-02-23T12:28:54.081Z,46.40
2023-02-23T12:31:29.920Z,38.30
2023-02-23T12:34:03.588Z,39.27
2023-02-23T12:36:39.507Z,40.37
2023-02-23T12:39:17.787Z,38.80
2023-02-23T12:41:52.310Z,41.07
2023-02-23T12:44:33.119Z,45.30
2023-02-23T12:47:08.615Z,38.80
2023-02-23T12:49:40.424Z,43.00
2023-02-23T12:52:14.766Z,36.43
2023-02-23T12:54:43.833Z,34.40
2023-02-23T12:57:23.697Z,36.90
2023-02-23T13:00:23.705Z,34.77
2023-02-23T13:03:02.838Z,35.73
2023-02-23T13:05:34.513Z,41.33
2023-02-23T13:08:13.849Z,40.80
2023-02-23T13:10:50.064Z,42.83
2023-02-23T13:13:30.903Z,45.17
2023-02-23T13:16:06.981Z,40.23
2023-02-23T13:18:42.229Z,40.53
2023-02-23T13:21:18.779Z,39.97
2023-02-23T13:23:57.068Z,39.00
2023-02-23T13:26:34.265Z,61.47
2023-02-23T13:29:07.094Z,41.90
2023-02-23T13:31:37.605Z,44.30
2023-02-23T13:34:11.251Z,36.53
2023-02-23T13:36:40.643Z,56.10
2023-02-23T13:39:41.569Z,46.00
2023-02-23T13:42:25.846Z,52.07
2023-02-23T13:44:59.956Z,46.80
2023-02-23T13:47:38.725Z,38.30
2023-02-23T13:50:18.370Z,39.97
2023-02-23T13:52:47.615Z,43.60
2023-02-23T13:55:51.656Z,45.67
2023-02-23T13:58:27.389Z,44.67
2023-02-23T14:01:06.140Z,46.37
2023-02-23T14:03:42.161Z,41.43
2023-02-23T14:06:16.400Z,32.27
2023-02-23T14:08:46.796Z,57.93
2023-02-23T14:11:30.996Z,46.57
2023-02-23T14:14:01.754Z,47.27
2023-02-23T14:16:30.655Z,49.63
2023-02-23T14:19:11.175Z,41.03
2023-02-23T14:21:49.828Z,41.00
2023-02-23T14:24:21.110Z,44.57
2023-02-23T14:27:34.157Z,40.83
2023-02-23T14:30:27.961Z,41.53
2023-02-23T14:33:13.054Z,43.10
2023-02-23T14:35:45.895Z,47.07
2023-02-23T14:38:29.967Z,51.60
2023-02-23T14:41:03.525Z,56.03
2023-02-23T14:43:43.325Z,83.67
2023-02-23T14:46:15.711Z,75.90
2023-02-23T14:48:56.710Z,53.50
2023-02-23T14:51:32.187Z,50.30
2023-02-23T14:54:11.650Z,62.30
2023-02-23T14:56:47.854Z,79.07
2023-02-23T14:59:21.190Z,54.93
2023-02-23T15:01:50.050Z,42.40
2023-02-23T15:04:20.648Z,56.03
2023-02-23T15:06:49.316Z,49.57
2023-02-23T15:09:23.922Z,48.73
2023-02-23T15:11:54.117Z,46.87
2023-02-23T15:14:28.009Z,45.80
2023-02-23T15:16:57.461Z,53.37
2023-02-23T15:19:28.901Z,47.03
2023-02-23T15:21:58.842Z,49.60
2023-02-23T15:24:31.754Z,48.53
2023-02-23T15:27:00.069Z,53.70
2023-02-23T15:29:33.891Z,52.10
2023-02-23T15:32:17.520Z,48.77
2023-02-23T15:34:45.675Z,48.10
2023-02-23T15:37:19.960Z,57.83
2023-02-23T15:39:54.016Z,53.23
2023-02-23T15:42:26.478Z,47.80
2023-02-23T15:45:01.311Z,69.23
2023-02-23T15:47:34.658Z,44.60
2023-02-23T15:50:08.097Z,51.57
2023-02-23T15:52:43.897Z,52.43
2023-02-23T15:55:16.727Z,57.00
2023-02-23T15:57:49.046Z,83.93
2023-02-23T16:00:23.363Z,92.93
2023-02-23T16:02:52.075Z,128.53
2023-02-23T16:05:22.043Z,111.80
2023-02-23T16:08:06.044Z,95.37
2023-02-23T16:10:47.975Z,82.70
2023-02-23T16:13:22.041Z,51.17
2023-02-23T16:15:52.528Z,52.53
2023-02-23T16:18:23.338Z,52.73
2023-02-23T16:20:55.976Z,41.13
2023-02-23T16:23:33.778Z,46.77
2023-02-23T16:26:11.703Z,49.43
2023-02-23T16:28:44.591Z,48.60
2023-02-23T16:31:14.395Z,49.83
2023-02-23T16:33:45.235Z,53.57
2023-02-23T16:36:19.336Z,53.10
2023-02-23T16:38:59.820Z,55.37
2023-02-23T16:41:32.205Z,41.43
2023-02-23T16:44:03.000Z,51.97
2023-02-23T16:46:35.622Z,53.67
2023-02-23T16:49:10.102Z,44.17
2023-02-23T16:51:38.517Z,59.30
2023-02-23T16:54:08.364Z,54.37
2023-02-23T16:56:40.743Z,48.80
2023-02-23T16:59:12.129Z,46.80
2023-02-23T17:01:40.056Z,50.80
2023-02-23T17:04:15.291Z,51.67
2023-02-23T17:06:43.635Z,46.50
2023-02-23T17:09:12.053Z,48.37
2023-02-23T17:11:42.048Z,46.73
2023-02-23T17:14:12.516Z,53.60
2023-02-23T17:16:40.589Z,52.27
2023-02-23T17:19:08.531Z,48.23
2023-02-23T17:21:36.597Z,53.40
2023-02-23T17:24:04.741Z,49.60
2023-02-23T17:26:32.689Z,51.63
2023-02-23T17:29:01.964Z,54.00
2023-02-23T17:31:31.977Z,49.87
2023-02-23T17:34:00.344Z,57.93
2023-02-23T17:36:28.312Z,51.53
2023-02-23T17:38:58.608Z,48.43
2023-02-23T17:41:27.220Z,51.10
2023-02-23T17:43:55.534Z,57.07
2023-02-23T17:46:24.921Z,52.63
2023-02-23T17:48:55.089Z,58.33
2023-02-23T17:51:23.973Z,53.40
2023-02-23T17:53:51.982Z,55.63
2023-02-23T17:56:20.165Z,52.60
2023-02-23T17:58:48.794Z,49.97
2023-02-23T18:01:17.933Z,59.17
2023-02-23T18:03:48.008Z,53.27
2023-02-23T18:06:16.873Z,52.87
2023-02-23T18:08:45.450Z,64.53
2023-02-23T18:11:17.381Z,54.53
2023-02-23T18:13:47.789Z,50.47
2023-02-23T18:16:16.731Z,58.50
2023-02-23T18:18:48.549Z,53.70
2023-02-23T18:21:19.175Z,54.10
2023-02-23T18:23:47.663Z,56.63
2023-02-23T18:26:17.989Z,53.07
2023-02-23T18:28:47.325Z,55.83
2023-02-23T18:31:17.076Z,57.23
2023-02-23T18:33:49.648Z,52.77
2023-02-23T18:36:20.817Z,61.00
2023-02-23T18:38:49.404Z,60.47
2023-02-23T18:41:18.538Z,54.07
2023-02-23T18:43:47.445Z,52.10
2023-02-23T18:46:16.984Z,55.00
2023-02-23T18:48:45.566Z,53.63
2023-02-23T18:51:15.078Z,58.47
2023-02-23T18:53:44.482Z,69.83
2023-02-23T18:56:14.635Z,70.70
2023-02-23T18:58:45.284Z,57.50
2023-02-23T19:01:17.935Z,60.60
2023-02-23T19:03:46.304Z,56.17
2023-02-23T19:06:17.020Z,56.90
2023-02-23T19:08:45.720Z,57.93
2023-02-23T19:11:13.860Z,57.40
2023-02-23T19:13:42.149Z,60.23
2023-02-23T19:16:10.228Z,57.53
2023-02-23T19:18:38.284Z,58.90
2023-02-23T19:21:08.317Z,67.53
2023-02-23T19:23:38.722Z,57.93
2023-02-23T19:26:06.931Z,55.40
2023-02-23T19:28:35.096Z,60.33
2023-02-23T19:31:04.697Z,55.07
2023-02-23T19:33:33.529Z,55.60
2023-02-23T19:36:05.292Z,58.50
2023-02-23T19:38:33.403Z,50.73
2023-02-23T19:41:06.103Z,55.50
2023-02-23T19:43:34.335Z,50.80
2023-02-23T19:46:04.804Z,53.87
2023-02-23T19:48:32.819Z,52.33
2023-02-23T19:51:00.908Z,56.90
2023-02-23T19:53:29.388Z,55.90
2023-02-23T19:56:03.247Z,55.20
2023-02-23T19:58:31.197Z,64.10
2023-02-23T20:01:05.160Z,67.50
2023-02-23T20:03:33.190Z,62.43
2023-02-23T20:06:05.376Z,65.73
2023-02-23T20:08:34.236Z,81.27
2023-02-23T20:11:06.340Z,77.97
2023-02-23T20:13:34.317Z,86.27
2023-02-23T20:16:03.437Z,76.80
2023-02-23T20:18:33.356Z,72.93
2023-02-23T20:21:01.315Z,70.97
2023-02-23T20:23:29.589Z,68.80
2023-02-23T20:25:57.503Z,72.50
2023-02-23T20:28:26.937Z,56.93
2023-02-23T20:30:54.955Z,66.27
2023-02-23T20:33:22.928Z,56.80
2023-02-23T20:35:51.272Z,61.23
2023-02-23T20:38:19.252Z,61.07
2023-02-23T20:40:50.222Z,58.10
2023-02-23T20:43:18.219Z,66.40
2023-02-23T20:45:47.626Z,61.07
2023-02-23T20:48:15.742Z,58.00
2023-02-23T20:50:44.021Z,63.90
2023-02-23T20:53:12.098Z,63.87
2023-02-23T20:55:40.634Z,65.23
2023-02-23T20:58:08.753Z,66.60
2023-02-23T21:00:36.677Z,65.93
2023-02-23T21:03:06.011Z,74.93
2023-02-23T21:05:40.217Z,80.30
2023-02-23T21:08:09.645Z,65.30
2023-02-23T21:10:40.003Z,72.53
2023-02-23T21:13:10.286Z,67.03
2023-02-23T21:15:39.078Z,70.97
2023-02-23T21:18:08.864Z,73.87
2023-02-23T21:20:38.590Z,67.30
2023-02-23T21:23:06.612Z,67.93
2023-02-23T21:25:34.898Z,79.07
2023-02-23T21:28:02.945Z,74.17
2023-02-23T21:30:31.156Z,84.60
2023-02-23T21:33:00.103Z,71.13
2023-02-23T21:35:29.549Z,78.77
2023-02-23T21:37:57.837Z,77.47
2023-02-23T21:40:26.028Z,71.27
2023-02-23T21:42:54.064Z,66.63
2023-02-23T21:45:22.169Z,85.07
2023-02-23T21:47:50.338Z,78.63
2023-02-23T21:50:20.724Z,67.40
2023-02-23T21:52:54.021Z,82.73
2023-02-23T21:55:22.759Z,82.17
2023-02-23T21:57:51.262Z,75.50
2023-02-23T22:00:20.892Z,86.73
2023-02-23T22:02:49.307Z,82.23
2023-02-23T22:05:19.704Z,94.07
2023-02-23T22:07:54.125Z,74.93
2023-02-23T22:10:24.227Z,82.80
2023-02-23T22:12:53.482Z,81.63
2023-02-23T22:15:25.190Z,88.57
2023-02-23T22:17:53.110Z,80.90
2023-02-23T22:20:21.324Z,87.47
2023-02-23T22:22:50.309Z,83.43
2023-02-23T22:25:21.046Z,84.27
2023-02-23T22:27:48.960Z,89.43
2023-02-23T22:30:17.365Z,77.10
2023-02-23T22:32:45.542Z,82.80
2023-02-23T22:35:13.590Z,93.77
2023-02-23T22:37:41.473Z,80.23
2023-02-23T22:40:14.382Z,82.00
2023-02-23T22:42:48.024Z,90.63
2023-02-23T22:45:16.995Z,78.73
2023-02-23T22:47:45.030Z,88.07
2023-02-23T22:50:18.998Z,78.43
2023-02-23T22:52:47.285Z,82.20
2023-02-23T22:55:15.292Z,84.00
2023-02-23T22:57:45.981Z,77.53
2023-02-23T23:00:17.399Z,80.03
2023-02-23T23:02:45.691Z,79.70
2023-02-23T23:05:14.507Z,75.77
2023-02-23T23:07:43.126Z,87.83
2023-02-23T23:10:12.614Z,98.63
2023-02-23T23:12:41.505Z,108.03
2023-02-23T23:15:15.153Z,101.67
2023-02-23T23:17:48.374Z,98.30
2023-02-23T23:20:18.637Z,85.77
2023-02-23T23:22:46.564Z,106.73
2023-02-23T23:25:15.666Z,98.60
2023-02-23T23:27:45.694Z,99.83
2023-02-23T23:30:15.978Z,89.83
2023-02-23T23:32:44.038Z,93.73
2023-02-23T23:35:13.925Z,89.43
2023-02-23T23:37:41.930Z,93.57
2023-02-23T23:40:14.631Z,107.53
2023-02-23T23:42:45.790Z,92.70
2023-02-23T23:45:16.572Z,89.67
2023-02-23T23:47:44.947Z,95.47
2023-02-23T23:50:15.372Z,87.27
2023-02-23T23:52:44.466Z,91.33
2023-02-23T23:55:14.577Z,98.63
2023-02-23T23:57:42.907Z,93.60
